Disclaimer

Please do not use the information listed here in-flight or in-navigation, as they are not provided to us by the airports but are provided by volunteers, so they might be outdated.

Search


Regions


Airport information page

No radio frequency information is available.

Airport informations:
Latitude: 34° 47' 35.84" N
Longitude: 005° 44' 17.63" E
Elevation: 289 feet - 88 meters
Operating hours: N/A
Operating agency: Civil government, landing fees and diplomatic clearance may be required
Timezone: N/A
Fuel: Jet A1, without icing nhibitor.

100/130 octane gasoline, leaded, MIL-L-5572F (GREEN)

Runway information:
13/31 - 9469 x 148 feet< - >2886 x 45 meters

Recent METARs:
DAUB 131300Z 11015KT 9999 SCT033TCU SCT040 24/15 Q1023
DAUB 131400Z 12016KT 9999 SCT030TCU 24/15 Q1023
DAUB 131400Z 12016KT 9999 SCT030TCU 24/15 Q1023

Airport on the map: